Time;durP1;ratioP1;P1;durP2;ratioP2;P2;SDS_P1;SDS_P2;PMS_P1;PMS_P2;Temp;Humidity;BMP_temperature;BMP_pressure;BME280_temperature;BME280_humidity;BME280_pressure;Samples;Min_cycle;Max_cycle;Signal;HPM_P1;HPM_P2
2021/01/27 00:03:21;;;;;;;20.57;18.37;;;;;;;;;;15553429;28;20192;-80
2021/01/27 00:10:49;;;;;;;20.80;18.60;;;;;;;;;;15553602;28;20637;-81
2021/01/27 00:18:18;;;;;;;20.30;17.60;;;4.00;71.20;;;;;;15553622;28;20230;-80
2021/01/27 00:25:45;;;;;;;20.23;18.07;;;;;;;;;;15554532;28;20226;-81
2021/01/27 00:33:15;;;;;;;15.97;14.27;;;;;;;;;;15534068;28;20688;-81
2021/01/27 00:40:42;;;;;;;14.23;12.60;;;;;;;;;;15551419;28;20699;-81
2021/01/27 00:48:09;;;;;;;11.53;10.27;;;;;;;;;;15550073;28;20220;-81
2021/01/27 00:55:37;;;;;;;12.57;10.70;;;;;;;;;;15550035;28;20828;-81
2021/01/27 01:03:04;;;;;;;10.83;9.63;;;;;;;;;;15531957;28;20216;-82
2021/01/27 01:10:33;;;;;;;10.03;9.03;;;4.20;70.10;;;;;;15549082;28;20661;-80
2021/01/27 01:18:02;;;;;;;13.57;12.17;;;;;;;;;;15549388;28;20245;-76
2021/01/27 01:25:31;;;;;;;8.50;7.60;;;3.80;69.20;;;;;;15514060;28;20688;-80
2021/01/27 01:33:00;;;;;;;8.07;7.10;;;4.40;69.80;;;;;;15530272;28;20293;-81
2021/01/27 01:40:30;;;;;;;8.07;7.27;;;;;;;;;;15529830;28;20248;-82
2021/01/27 01:47:58;;;;;;;8.60;7.70;;;;;;;;;;15548309;28;20215;-81
2021/01/27 01:55:25;;;;;;;9.30;7.93;;;;;;;;;;15547469;28;20208;-81
2021/01/27 02:02:54;;;;;;;9.03;8.13;;;;;;;;;;15513608;28;20214;-79
2021/01/27 02:10:21;;;;;;;8.47;7.57;;;;;;;;;;15528619;28;20563;-82
2021/01/27 02:17:56;;;;;;;9.10;7.90;;;4.00;70.50;;;;;;15528764;28;20258;-79
2021/01/27 02:25:47;;;;;;;8.53;7.40;;;;;;;;;;15551469;28;20204;-78
2021/01/27 02:33:46;;;;;;;9.53;8.50;;;4.10;71.00;;;;;;15552658;28;20707;-78
2021/01/27 02:41:16;;;;;;;9.53;8.53;;;;;;;;;;15543994;28;20207;-80
2021/01/27 02:48:47;;;;;;;8.30;7.50;;;4.40;70.80;;;;;;15535758;28;20211;-80
2021/01/27 02:56:23;;;;;;;9.00;8.10;;;4.60;71.00;;;;;;15554192;28;20260;-82
2021/01/27 03:03:54;;;;;;;9.23;8.27;;;;;;;;;;15539024;28;20184;-81
2021/01/27 03:11:24;;;;;;;10.07;8.47;;;3.90;70.30;;;;;;15566438;28;20777;-82
2021/01/27 03:18:55;;;;;;;10.67;9.47;;;;;;;;;;15562560;28;20251;-82
2021/01/27 03:26:26;;;;;;;10.17;9.17;;;;;;;;;;15565574;28;20184;-82
2021/01/27 03:33:58;;;;;;;11.73;10.30;;;;;;;;;;15523851;28;20258;-82
2021/01/27 03:41:29;;;;;;;13.43;12.03;;;;;;;;;;15536445;28;20179;-81
2021/01/27 03:49:01;;;;;;;14.97;13.37;;;;;;;;;;15555293;28;20215;-82
2021/01/27 03:56:35;;;;;;;15.93;14.23;;;3.60;71.70;;;;;;15537142;28;20204;-81
2021/01/27 04:04:04;;;;;;;17.23;15.43;;;;;;;;;;15554967;28;20215;-82
2021/01/27 04:11:31;;;;;;;16.07;14.40;;;;;;;;;;15552931;28;20180;-82
2021/01/27 04:18:59;;;;;;;17.83;15.53;;;;;;;;;;15535063;28;20231;-82
2021/01/27 04:26:26;;;;;;;16.47;14.73;;;;;;;;;;15553023;28;20188;-83
2021/01/27 04:33:54;;;;;;;16.63;14.80;;;;;;;;;;15533685;28;20293;-82
2021/01/27 04:41:21;;;;;;;17.30;14.87;;;;;;;;;;15551057;28;20227;-82
2021/01/27 04:48:53;;;;;;;18.70;16.53;;;;;;;;;;15516549;28;20227;-81
2021/01/27 04:56:35;;;;;;;19.37;17.27;;;;;;;;;;15533588;28;20207;-82
2021/01/27 05:04:10;;;;;;;18.03;16.13;;;;;;;;;;15515513;28;20762;-82
2021/01/27 05:11:38;;;;;;;19.93;17.83;;;;;;;;;;15549909;28;20192;-82
2021/01/27 05:19:07;;;;;;;75.67;48.67;;;3.50;71.90;;;;;;15549418;28;20243;-81
2021/01/27 05:26:36;;;;;;;18.47;16.03;;;;;;;;;;15549564;28;20548;-82
2021/01/27 05:34:03;;;;;;;16.20;14.03;;;;;;;;;;15530515;28;20232;-81
2021/01/27 05:41:30;;;;;;;19.33;16.57;;;;;;;;;;15530913;28;20291;-81
2021/01/27 05:48:57;;;;;;;21.53;18.57;;;;;;;;;;15532160;28;20265;-82
2021/01/27 05:56:27;;;;;;;20.87;18.67;;;4.50;73.00;;;;;;15537185;28;20223;-81
2021/01/27 06:03:58;;;;;;;21.73;18.90;;;4.40;72.90;;;;;;15541606;28;20199;-80
2021/01/27 06:11:27;;;;;;;20.87;18.43;;;;;;;;;;15560895;28;20180;-81
2021/01/27 06:19:10;;;;;;;23.10;19.57;;;3.50;72.90;;;;;;15560269;28;20273;-82
2021/01/27 06:27:11;;;;;;;21.53;19.23;;;4.20;72.70;;;;;;15560782;28;20186;-82
2021/01/27 06:34:52;;;;;;;22.27;19.83;;;4.30;73.10;;;;;;15559558;28;20713;-82
2021/01/27 06:42:34;;;;;;;23.57;20.33;;;;;;;;;;15544139;28;20594;-82
2021/01/27 06:50:15;;;;;;;24.13;20.60;;;;;;;;;;15537259;28;20207;-82
2021/01/27 06:58:06;;;;;;;23.67;19.63;;;;;;;;;;15536803;28;20248;-81
2021/01/27 07:05:47;;;;;;;21.97;19.30;;;;;;;;;;15538809;28;20263;-81
2021/01/27 07:13:24;;;;;;;19.87;17.70;;;;;;;;;;15535845;28;20636;-82
2021/01/27 07:20:52;;;;;;;20.10;18.00;;;;;;;;;;15536555;28;20184;-83
2021/01/27 07:28:22;;;;;;;21.10;18.17;;;;;;;;;;15554306;28;20189;-81
2021/01/27 07:35:55;;;;;;;18.23;16.17;;;;;;;;;;15536617;28;20212;-82
2021/01/27 07:43:26;;;;;;;21.53;18.13;;;;;;;;;;15535049;28;20222;-83
2021/01/27 07:50:58;;;;;;;20.13;16.70;;;;;;;;;;15537069;28;20267;-84
2021/01/27 07:58:30;;;;;;;17.83;15.93;;;;;;;;;;15555760;28;20225;-82
2021/01/27 08:06:02;;;;;;;18.40;15.63;;;;;;;;;;15519352;28;20255;-83
2021/01/27 08:13:38;;;;;;;17.87;15.23;;;;;;;;;;15533262;28;20223;-82
2021/01/27 08:21:26;;;;;;;17.70;15.10;;;;;;;;;;15534270;28;20188;-81
2021/01/27 08:29:08;;;;;;;18.73;14.77;;;3.70;72.40;;;;;;15539691;28;20247;-82
2021/01/27 08:37:04;;;;;;;16.50;14.70;;;4.10;71.10;;;;;;15541938;28;20672;-82
2021/01/27 08:44:35;;;;;;;16.10;14.37;;;;;;;;;;15534577;28;20222;-83
2021/01/27 08:52:03;;;;;;;15.57;13.63;;;;;;;;;;15550901;28;20259;-82
2021/01/27 08:59:32;;;;;;;15.97;12.77;;;;;;;;;;15536495;28;20224;-81
2021/01/27 09:07:06;;;;;;;13.90;12.33;;;3.80;70.60;;;;;;15519534;28;20211;-82
2021/01/27 09:14:33;;;;;;;12.93;11.53;;;;;;;;;;15551069;28;20216;-83
2021/01/27 09:22:02;;;;;;;17.17;12.67;;;;;;;;;;15556053;28;20199;-83
2021/01/27 09:29:36;;;;;;;14.27;12.00;;;;;;;;;;15533869;28;20220;-82
2021/01/27 09:37:13;;;;;;;13.60;11.40;;;;;;;;;;15552270;28;20204;-82
2021/01/27 09:44:47;;;;;;;13.83;12.33;;;;;;;;;;15534930;28;20584;-82
2021/01/27 09:52:15;;;;;;;16.00;12.07;;;;;;;;;;15546670;28;20185;-80
2021/01/27 09:59:43;;;;;;;13.33;11.30;;;;;;;;;;15543942;28;20216;-82
2021/01/27 10:07:14;;;;;;;13.80;11.27;;;;;;;;;;15544266;28;20231;-82
2021/01/27 10:14:42;;;;;;;20.40;10.33;;;;;;;;;;15543971;28;20219;-80
2021/01/27 10:22:09;;;;;;;12.50;10.07;;;;;;;;;;15525146;28;20786;-81
2021/01/27 10:29:41;;;;;;;11.30;9.90;;;;;;;;;;15525659;28;20223;-80
2021/01/27 10:37:25;;;;;;;12.03;9.37;;;;;;;;;;15522693;28;20228;-80
2021/01/27 10:45:07;;;;;;;9.87;8.87;;;;;;;;;;15545754;28;20764;-81
2021/01/27 10:52:35;;;;;;;10.43;8.60;;;;;;;;;;15552352;28;20729;-82
2021/01/27 11:00:02;;;;;;;13.37;9.67;;;;;;;;;;15554408;28;20562;-81
2021/01/27 11:07:29;;;;;;;9.10;8.03;;;;;;;;;;15551513;28;20267;-81
2021/01/27 11:14:56;;;;;;;12.17;8.43;;;;;;;;;;15551897;28;20243;-82
2021/01/27 11:22:28;;;;;;;12.90;10.17;;;;;;;;;;15550606;28;20272;-80
2021/01/27 11:29:56;;;;;;;11.43;8.57;;;;;;;;;;15550246;28;20215;-80
2021/01/27 11:37:23;;;;;;;11.70;7.97;;;;;;;;;;15549335;28;20232;-79
2021/01/27 11:44:50;;;;;;;9.30;7.77;;;;;;;;;;15532248;28;20212;-81
2021/01/27 11:52:18;;;;;;;10.00;7.93;;;;;;;;;;15564390;28;20244;-80
2021/01/27 11:59:46;;;;;;;12.73;7.67;;;;;;;;;;15547543;28;20211;-80
2021/01/27 12:07:13;;;;;;;11.40;6.97;;;;;;;;;;15530668;28;20255;-80
2021/01/27 12:14:44;;;;;;;7.97;6.27;;;;;;;;;;15548326;28;20233;-80
2021/01/27 12:22:12;;;;;;;14.33;10.50;;;;;;;;;;15531143;28;20183;-80
2021/01/27 12:29:40;;;;;;;10.87;7.13;;;;;;;;;;15547769;28;20758;-81
2021/01/27 12:37:08;;;;;;;8.20;6.77;;;;;;;;;;15548486;28;20216;-82
2021/01/27 12:44:35;;;;;;;10.50;7.40;;;;;;;;;;15530027;28;20219;-79
2021/01/27 12:52:02;;;;;;;7.20;6.50;;;;;;;;;;15531391;28;20194;-80
2021/01/27 12:59:29;;;;;;;8.13;5.83;;;;;;;;;;15546815;28;20215;-82
2021/01/27 13:06:57;;;;;;;10.00;6.60;;;;;;;;;;15550977;28;20192;-80
2021/01/27 13:14:24;;;;;;;20.30;7.80;;;;;;;;;;15534196;28;20255;-82
2021/01/27 13:21:53;;;;;;;11.07;7.60;;;;;;;;;;15534084;28;20280;-79
2021/01/27 13:29:20;;;;;;;7.17;5.70;;;;;;;;;;15528970;28;20235;-80
2021/01/27 13:36:47;;;;;;;6.80;5.90;;;;;;;;;;15529976;28;20212;-82
2021/01/27 13:44:15;;;;;;;9.60;5.80;;;;;;;;;;15562546;28;20287;-80
2021/01/27 13:51:42;;;;;;;6.87;5.70;;;;;;;;;;15518170;28;20422;-81
2021/01/27 13:59:10;;;;;;;9.70;6.30;;;;;;;;;;15519635;28;20280;-80
2021/01/27 14:06:41;;;;;;;6.03;4.73;;;;;;;;;;15545424;28;20191;-80
2021/01/27 14:14:09;;;;;;;5.57;5.03;;;;;;;;;;15526105;28;20219;-80
2021/01/27 14:21:39;;;;;;;7.97;4.80;;;;;;;;;;15531899;28;20229;-80
2021/01/27 14:29:08;;;;;;;8.63;5.23;;;;;;;;;;15520579;28;20220;-81
2021/01/27 14:36:35;;;;;;;8.73;5.73;;;;;;;;;;15555054;28;20216;-80
2021/01/27 14:44:02;;;;;;;7.33;5.60;;;;;;;;;;15554729;28;20308;-79
2021/01/27 14:51:32;;;;;;;5.60;5.00;;;;;;;;;;15553572;28;20188;-80
2021/01/27 14:59:01;;;;;;;6.40;5.60;;;;;;;;;;15552913;28;20214;-79
2021/01/27 15:06:29;;;;;;;9.57;6.00;;;;;;;;;;15552473;28;20196;-79
2021/01/27 15:14:00;;;;;;;6.87;4.83;;;;;;;;;;15551421;28;20301;-80
2021/01/27 15:21:28;;;;;;;6.40;5.67;;;;;;;;;;15550974;28;20233;-79
2021/01/27 15:28:54;;;;;;;6.47;4.70;;;;;;;;;;15550836;28;20591;-79
2021/01/27 15:36:23;;;;;;;7.00;6.30;;;;;;;;;;15532519;28;20314;-80
2021/01/27 15:43:52;;;;;;;8.43;6.03;;;;;;;;;;15550179;28;20219;-79
2021/01/27 15:51:23;;;;;;;7.53;5.90;;;;;;;;;;15551337;28;20671;-81
2021/01/27 15:58:51;;;;;;;7.80;6.10;;;;;;;;;;15555105;28;20775;-79
2021/01/27 16:06:26;;;;;;;8.30;5.70;;;;;;;;;;15551749;28;20578;-78
2021/01/27 16:13:52;;;;;;;6.57;5.87;;;;;;;;;;15549738;28;20231;-79
2021/01/27 16:21:18;;;;;;;8.27;5.67;;;;;;;;;;15529570;28;20540;-81
2021/01/27 16:28:46;;;;;;;10.30;6.53;;;;;;;;;;15510098;28;20219;-79
2021/01/27 16:36:17;;;;;;;11.83;7.43;;;;;;;;;;15547306;28;20207;-80
2021/01/27 16:43:43;;;;;;;11.43;6.17;;;;;;;;;;15551471;28;20223;-80
2021/01/27 16:51:14;;;;;;;8.83;6.67;;;;;;;;;;15514219;28;20200;-80
2021/01/27 16:58:42;;;;;;;7.73;6.57;;;;;;;;;;15546088;28;20204;-76
2021/01/27 17:06:09;;;;;;;7.53;6.57;;;;;;;;;;15546249;28;20646;-78
2021/01/27 17:13:37;;;;;;;8.20;6.37;;;;;;;;;;15528338;28;20231;-78
2021/01/27 17:21:04;;;;;;;9.03;5.93;;;;;;;;;;15547270;28;20196;-80
2021/01/27 17:28:31;;;;;;;7.17;5.50;;;;;;;;;;15546530;28;20246;-81
2021/01/27 17:36:01;;;;;;;8.50;6.70;;;;;;;;;;15528251;28;20208;-79
2021/01/27 17:43:44;;;;;;;6.30;5.30;;;;;;;;;;15527645;28;20220;-78
2021/01/27 17:51:13;;;;;;;7.10;5.70;;;;;;;;;;15544997;28;20195;-79
2021/01/27 17:58:40;;;;;;;9.10;6.47;;;;;;;;;;15545003;28;20212;-78
2021/01/27 18:06:06;;;;;;;8.20;5.30;;;;;;;;;;15544620;28;20223;-79
2021/01/27 18:13:35;;;;;;;7.67;5.63;;;;;;;;;;15544187;28;20304;-78
2021/01/27 18:21:02;;;;;;;7.17;5.00;;;;;;;;;;15544079;28;20245;-80
2021/01/27 18:28:30;;;;;;;9.10;7.23;;;;;;;;;;15526763;28;20192;-77
2021/01/27 18:36:00;;;;;;;7.70;4.10;;;;;;;;;;15526853;28;20215;-80
2021/01/27 18:43:28;;;;;;;6.53;3.73;;;4.20;59.10;;;;;;15543550;28;20219;-78
2021/01/27 18:50:55;;;;;;;5.30;3.93;;;;;;;;;;15524631;28;20548;-78
2021/01/27 18:58:23;;;;;;;5.60;4.60;;;;;;;;;;15525171;28;20216;-79
2021/01/27 19:05:55;;;;;;;6.20;4.80;;;;;;;;;;15546414;28;20638;-77
2021/01/27 19:13:25;;;;;;;6.03;5.10;;;;;;;;;;15523304;28;20290;-79
2021/01/27 19:20:55;;;;;;;6.77;4.90;;;;;;;;;;15539658;28;20619;-81
2021/01/27 19:28:22;;;;;;;6.93;5.30;;;;;;;;;;15537315;28;20214;-79
2021/01/27 19:35:51;;;;;;;6.77;4.53;;;;;;;;;;15490186;28;20576;-78
2021/01/27 19:43:19;;;;;;;5.17;3.90;;;;;;;;;;15491106;28;20228;-78
2021/01/27 19:50:47;;;;;;;6.70;3.60;;;;;;;;;;15490771;28;20185;-79
2021/01/27 19:58:14;;;;;;;4.13;3.17;;;;;;;;;;15490651;28;20231;-77
2021/01/27 20:05:42;;;;;;;5.33;3.23;;;;;;;;;;15488387;28;20590;-80
2021/01/27 20:13:11;;;;;;;3.57;2.90;;;;;;;;;;15489160;28;20609;-80
2021/01/27 20:20:39;;;;;;;4.30;2.80;;;;;;;;;;15488052;28;20538;-79
2021/01/27 20:28:09;;;;;;;3.63;2.80;;;;;;;;;;15491199;28;20202;-78
2021/01/27 20:35:39;;;;;;;3.23;2.60;;;3.30;56.90;;;;;;15486302;28;20278;-81
2021/01/27 20:43:06;;;;;;;4.00;2.77;;;;;;;;;;15487163;28;20270;-78
2021/01/27 20:50:34;;;;;;;5.03;3.37;;;5.30;56.40;;;;;;15486038;28;20212;-78
2021/01/27 20:58:02;;;;;;;6.63;3.43;;;;;;;;;;15468533;28;20622;-80
2021/01/27 21:05:29;;;;;;;6.17;3.63;;;;;;;;;;15484315;28;20639;-82
2021/01/27 21:12:56;;;;;;;4.87;3.33;;;;;;;;;;15485268;28;20205;-81
2021/01/27 21:20:26;;;;;;;5.33;3.97;;;;;;;;;;15485312;28;20235;-77
2021/01/27 21:27:54;;;;;;;5.93;4.20;;;;;;;;;;15485396;28;20185;-77
2021/01/27 21:35:22;;;;;;;8.60;4.20;;;4.00;56.20;;;;;;15544568;28;20300;-80
2021/01/27 21:42:51;;;;;;;5.30;3.87;;;;;;;;;;15529917;28;20212;-79
2021/01/27 21:50:19;;;;;;;5.40;4.17;;;;;;;;;;15549725;28;20180;-82
2021/01/27 21:57:48;;;;;;;6.37;4.30;;;;;;;;;;15548196;28;20204;-80
2021/01/27 22:05:17;;;;;;;9.03;5.60;;;4.00;58.10;;;;;;15548578;28;20187;-77
2021/01/27 22:12:45;;;;;;;6.67;5.53;;;;;;;;;;15529602;28;20220;-76
2021/01/27 22:20:14;;;;;;;9.63;6.50;;;;;;;;;;15531091;28;20257;-80
2021/01/27 22:27:42;;;;;;;8.57;6.20;;;;;;;;;;15546273;28;20188;-80
2021/01/27 22:35:13;;;;;;;9.13;6.47;;;4.30;59.80;;;;;;15484129;28;20228;-81
2021/01/27 22:42:40;;;;;;;9.53;6.67;;;;;;;;;;15491152;28;20628;-81
2021/01/27 22:50:10;;;;;;;8.17;6.17;;;3.60;59.10;;;;;;15495448;28;20184;-80
2021/01/27 22:57:38;;;;;;;8.37;6.87;;;;;;;;;;15496055;28;20208;-80
2021/01/27 23:05:05;;;;;;;8.47;6.93;;;;;;;;;;15495284;28;20197;-80
2021/01/27 23:12:33;;;;;;;9.53;6.90;;;;;;;;;;15494552;28;20627;-80
2021/01/27 23:20:01;;;;;;;11.00;7.20;;;;;;;;;;15495977;28;20217;-81
2021/01/27 23:27:27;;;;;;;8.77;7.33;;;;;;;;;;15494266;28;20201;-81
2021/01/27 23:34:56;;;;;;;8.73;7.00;;;;;;;;;;15548055;28;20216;-81
2021/01/27 23:42:23;;;;;;;10.50;6.90;;;;;;;;;;15537226;28;20283;-81
2021/01/27 23:49:50;;;;;;;7.67;5.77;;;;;;;;;;15551462;28;20516;-85
2021/01/27 23:57:18;;;;;;;6.30;5.30;;;;;;;;;;15552076;28;20739;-85
